Time;durP1;ratioP1;P1;durP2;ratioP2;P2;SDS_P1;SDS_P2;PMS_P1;PMS_P2;Temp;Humidity;BMP_temperature;BMP_pressure;BME280_temperature;BME280_humidity;BME280_pressure;Samples;Min_cycle;Max_cycle;Signal;HPM_P1;HPM_P2
2023/12/09 00:01:33;;;;;;;34.58;12.65;;;;;;;5.79;100.00;100960.34;5080494;28;20100;-72
2023/12/09 00:03:58;;;;;;;35.13;13.18;;;;;;;5.76;100.00;100953.28;5076271;28;20031;-68
2023/12/09 00:06:24;;;;;;;34.90;12.65;;;;;;;5.73;100.00;100947.97;5086865;28;20024;-70
2023/12/09 00:08:50;;;;;;;36.45;13.30;;;;;;;5.70;100.00;100954.88;5084956;28;20471;-72
2023/12/09 00:11:16;;;;;;;36.08;13.25;;;;;;;5.72;100.00;100950.53;5085720;28;20036;-69
2023/12/09 00:13:41;;;;;;;34.08;12.15;;;;;;;5.76;100.00;100950.66;5086220;28;20020;-71
2023/12/09 00:16:07;;;;;;;35.15;12.93;;;;;;;5.72;100.00;100950.53;5084137;28;20051;-70
2023/12/09 00:18:33;;;;;;;36.10;13.00;;;;;;;5.72;100.00;100953.16;5086956;28;20036;-71
2023/12/09 00:20:58;;;;;;;35.72;13.38;;;;;;;5.72;100.00;100963.66;5083834;28;20029;-72
2023/12/09 00:23:23;;;;;;;36.80;13.55;;;;;;;5.80;100.00;100962.13;5086570;28;20125;-72
2023/12/09 00:25:49;;;;;;;35.53;13.68;;;;;;;5.73;100.00;100968.06;5084848;28;20085;-71
2023/12/09 00:28:14;;;;;;;36.42;12.77;;;;;;;5.70;100.00;100965.38;5085150;28;20430;-69
2023/12/09 00:30:40;;;;;;;34.30;13.10;;;;;;;5.66;100.00;100969.63;5086002;28;20360;-71
2023/12/09 00:33:05;;;;;;;33.65;13.63;;;;;;;5.64;100.00;100967.84;5083751;28;20033;-72
2023/12/09 00:35:30;;;;;;;33.38;13.38;;;;;;;5.69;100.00;100963.59;5087104;28;20103;-69
2023/12/09 00:37:56;;;;;;;35.45;13.35;;;;;;;5.68;100.00;100961.81;5083560;28;20063;-70
2023/12/09 00:40:22;;;;;;;36.78;12.73;;;;;;;5.74;100.00;100957.63;5085697;28;20052;-71
2023/12/09 00:42:47;;;;;;;39.13;13.70;;;;;;;5.71;100.00;100954.03;5084772;28;20035;-69
2023/12/09 00:45:13;;;;;;;33.40;13.20;;;;;;;5.74;100.00;100951.50;5084369;28;20033;-72
2023/12/09 00:47:38;;;;;;;31.58;12.35;;;;;;;5.83;100.00;100963.97;5086079;28;20063;-70
2023/12/09 00:50:05;;;;;;;33.60;12.98;;;;;;;5.82;100.00;100957.81;5083018;28;20115;-70
2023/12/09 00:52:31;;;;;;;38.97;13.27;;;;;;;5.79;100.00;100962.97;5086807;28;20382;-71
2023/12/09 00:54:56;;;;;;;33.80;12.55;;;;;;;5.76;100.00;100970.78;5083486;28;20035;-71
2023/12/09 00:57:24;;;;;;;36.72;13.65;;;;;;;5.68;100.00;100946.06;5085314;28;20115;-71
2023/12/09 00:59:49;;;;;;;36.58;13.60;;;;;;;5.61;100.00;100938.88;5082863;28;20071;-68
2023/12/09 01:02:15;;;;;;;33.45;13.77;;;;;;;5.56;100.00;100944.91;5084747;28;20443;-71
2023/12/09 01:04:40;;;;;;;38.05;13.93;;;;;;;5.55;100.00;100951.00;5085478;28;20059;-71
2023/12/09 01:07:05;;;;;;;36.53;13.57;;;;;;;5.55;100.00;100951.00;5083069;28;20074;-71
2023/12/09 01:09:31;;;;;;;33.58;13.48;;;;;;;5.51;100.00;100950.88;5086616;28;20024;-71
2023/12/09 01:11:56;;;;;;;38.25;13.70;;;;;;;5.54;100.00;100951.84;5082973;28;20024;-68
2023/12/09 01:14:21;;;;;;;34.95;13.80;;;;;;;5.49;100.00;100947.31;5084887;28;20033;-71
2023/12/09 01:16:47;;;;;;;38.72;14.43;;;;;;;5.48;100.00;100940.31;5084099;28;20438;-71
2023/12/09 01:19:12;;;;;;;37.65;14.02;;;;;;;5.44;100.00;100934.09;5083425;28;20036;-68
2023/12/09 01:21:37;;;;;;;36.97;13.93;;;;;;;5.43;100.00;100945.41;5085886;28;20024;-71
2023/12/09 01:24:04;;;;;;;35.22;14.02;;;;;;;5.41;100.00;100941.88;5082646;28;20041;-72
2023/12/09 01:26:30;;;;;;;36.72;14.93;;;;;;;5.39;100.00;100936.59;5078440;28;20116;-71
2023/12/09 01:28:56;;;;;;;36.75;13.48;;;;;;;5.47;100.00;100941.16;5085325;28;20432;-71
2023/12/09 01:31:21;;;;;;;38.33;14.32;;;;;;;5.43;100.00;100939.28;5083707;28;20039;-71
2023/12/09 01:33:47;;;;;;;37.30;14.40;;;;;;;5.38;100.00;100942.69;5083834;28;20032;-71
2023/12/09 01:36:12;;;;;;;34.80;13.98;;;;;;;5.37;100.00;100956.66;5084719;28;20054;-71
2023/12/09 01:38:37;;;;;;;37.85;15.10;;;;;;;5.36;100.00;100948.75;5082384;28;20399;-72
2023/12/09 01:41:03;;;;;;;37.45;14.18;;;;;;;5.33;100.00;100946.00;5085504;28;20036;-72
2023/12/09 01:43:28;;;;;;;35.75;14.10;;;;;;;5.31;100.00;100939.84;5082032;28;20066;-71
2023/12/09 01:45:57;;;;;;;36.47;14.10;;;;;;;5.31;100.00;100935.50;5084624;28;20036;-71
2023/12/09 01:48:23;;;;;;;37.95;14.13;;;;;;;5.27;100.00;100933.66;5082844;28;20101;-71
2023/12/09 01:50:49;;;;;;;38.15;14.63;;;;;;;5.25;100.00;100924.84;5084115;28;20713;-72
2023/12/09 01:53:15;;;;;;;38.40;15.25;;;;;;;5.25;100.00;100914.34;5084314;28;20044;-72
2023/12/09 01:55:41;;;;;;;35.83;14.30;;;;;;;5.25;100.00;100914.34;5083519;28;20032;-72
2023/12/09 01:58:06;;;;;;;38.05;14.80;;;;;;;5.20;100.00;100902.88;5082984;28;20383;-72
2023/12/09 02:00:32;;;;;;;39.20;14.45;;;;;;;5.20;100.00;100905.50;5084641;28;20036;-72
2023/12/09 02:02:58;;;;;;;35.08;13.82;;;;;;;5.13;100.00;100903.56;5081856;28;20036;-72
2023/12/09 02:05:25;;;;;;;37.35;14.60;;;;;;;5.12;100.00;100912.25;5076461;28;20025;-72
2023/12/09 02:07:51;;;;;;;35.78;14.80;;;;;;;5.03;100.00;100908.53;5084689;28;20036;-72
2023/12/09 02:10:16;;;;;;;37.88;15.57;;;;;;;5.00;100.00;100911.06;5082506;28;20083;-72
2023/12/09 02:13:00;;;;;;;39.17;15.27;;;;;;;4.97;100.00;100917.97;5083579;28;20033;-72
2023/12/09 02:15:34;;;;;;;36.97;14.82;;;;;;;4.97;100.00;100912.72;5077974;28;20025;-72
2023/12/09 02:18:03;;;;;;;37.95;14.35;;;;;;;4.92;100.00;100914.31;5078155;28;20032;-69
2023/12/09 02:20:29;;;;;;;38.08;15.10;;;;;;;4.93;100.00;100919.59;5084787;28;20130;-70
2023/12/09 02:23:11;;;;;;;37.35;14.77;;;;;;;4.99;100.00;100913.63;5081766;28;20036;-69
2023/12/09 02:25:38;;;;;;;35.70;14.33;;;;;;;4.88;100.00;100903.75;5080428;28;20020;-71
2023/12/09 02:28:15;;;;;;;39.53;15.50;;;;;;;4.87;100.00;100909.81;5083458;28;20024;-71
2023/12/09 02:30:50;;;;;;;37.80;14.98;;;;;;;4.87;100.00;100903.69;5082840;28;20090;-71
2023/12/09 02:33:17;;;;;;;38.40;14.80;;;;;;;4.86;100.00;100901.91;5082346;28;20474;-71
2023/12/09 02:35:45;;;;;;;39.22;14.65;;;;;;;4.88;100.00;100898.50;5083372;28;20029;-71
2023/12/09 02:38:11;;;;;;;38.83;14.73;;;;;;;4.93;100.00;100897.75;5082870;28;20454;-68
2023/12/09 02:40:38;;;;;;;37.47;14.82;;;;;;;4.86;100.00;100878.34;5082157;28;20074;-71
2023/12/09 02:43:05;;;;;;;36.47;14.70;;;;;;;4.83;100.00;100879.13;5083808;28;21412;-69
2023/12/09 02:45:30;;;;;;;42.65;14.95;;;;;;;4.81;100.00;100875.59;5081294;28;20032;-70
2023/12/09 02:47:56;;;;;;;37.63;14.63;;;;;;;4.82;100.00;100874.75;5084492;28;20024;-71
2023/12/09 02:50:21;;;;;;;39.70;14.32;;;;;;;4.84;100.00;100870.44;5081429;28;20421;-71
2023/12/09 02:52:46;;;;;;;37.17;14.48;;;;;;;4.82;100.00;100861.66;5083488;28;20467;-69
2023/12/09 02:55:12;;;;;;;37.22;13.45;;;;;;;4.82;100.00;100877.38;5082690;28;20086;-72
2023/12/09 02:57:37;;;;;;;39.78;14.90;;;;;;;4.78;100.00;100870.28;5082382;28;20063;-67
2023/12/09 03:00:05;;;;;;;40.08;14.32;;;;;;;4.75;100.00;100872.81;5083986;28;20036;-70
2023/12/09 03:02:31;;;;;;;37.70;14.23;;;;;;;4.75;100.00;100854.47;5081362;28;20037;-71
2023/12/09 03:04:57;;;;;;;38.90;13.82;;;;;;;4.79;100.00;100866.81;5084592;28;20032;-71
2023/12/09 03:07:22;;;;;;;41.08;13.85;;;;;;;4.78;100.00;100848.44;5080829;28;20458;-71
2023/12/09 03:09:48;;;;;;;39.17;14.30;;;;;;;4.84;100.00;100861.72;5082511;28;20067;-71
2023/12/09 03:12:13;;;;;;;35.50;13.15;;;;;;;4.82;100.00;100838.09;5082429;28;20032;-71
2023/12/09 03:14:39;;;;;;;38.25;13.48;;;;;;;4.84;100.00;100862.59;5082082;28;20032;-71
2023/12/09 03:17:05;;;;;;;37.20;13.50;;;;;;;4.82;100.00;100840.72;5083607;28;20471;-71
2023/12/09 03:19:30;;;;;;;36.20;12.85;;;;;;;4.82;100.00;100866.91;5080808;28;20485;-72
2023/12/09 03:21:56;;;;;;;34.88;12.90;;;;;;;4.85;100.00;100847.78;5084247;28;20028;-72
2023/12/09 03:24:21;;;;;;;39.75;12.63;;;;;;;4.88;100.00;100861.81;5079924;28;20032;-72
2023/12/09 03:26:54;;;;;;;37.03;12.90;;;;;;;4.86;100.00;100842.56;5082873;28;20025;-71
2023/12/09 03:29:20;;;;;;;34.42;12.73;;;;;;;4.95;100.00;100860.28;5081251;28;20391;-72
2023/12/09 03:31:46;;;;;;;36.72;12.80;;;;;;;4.88;100.00;100851.34;5082943;28;20021;-71
2023/12/09 03:34:15;;;;;;;36.80;12.75;;;;;;;4.85;100.00;100858.25;5082165;28;20475;-71
2023/12/09 03:36:41;;;;;;;36.10;12.63;;;;;;;4.82;100.00;100845.94;5082152;28;20025;-72
2023/12/09 03:39:07;;;;;;;36.83;12.80;;;;;;;4.86;100.00;100850.44;5083673;28;20032;-71
2023/12/09 03:41:35;;;;;;;40.85;13.02;;;;;;;4.82;100.00;100839.81;5084691;28;20024;-71
2023/12/09 03:44:01;;;;;;;33.25;11.57;;;;;;;4.79;100.00;100839.72;5087267;28;20036;-71
2023/12/09 03:46:27;;;;;;;35.85;12.18;;;;;;;4.78;100.00;100833.59;5084233;28;20064;-71
2023/12/09 03:48:52;;;;;;;34.85;11.20;;;;;;;4.76;100.00;100830.06;5086610;28;20051;-72
2023/12/09 03:51:18;;;;;;;35.67;11.68;;;;;;;4.72;100.00;100833.44;5085007;28;20133;-72
2023/12/09 03:53:43;;;;;;;36.33;11.90;;;;;;;4.74;100.00;100821.25;5086407;28;20040;-72
2023/12/09 03:56:11;;;;;;;34.33;11.18;;;;;;;4.69;100.00;100812.41;5086282;28;20488;-72
2023/12/09 03:58:36;;;;;;;38.47;11.88;;;;;;;4.62;100.00;100816.56;5084967;28;20035;-72
2023/12/09 04:01:03;;;;;;;34.90;11.18;;;;;;;4.60;100.00;100810.41;5087202;28;20028;-72
2023/12/09 04:03:28;;;;;;;35.83;11.32;;;;;;;4.65;100.00;100800.06;5083945;28;20029;-72
2023/12/09 04:05:54;;;;;;;35.97;11.68;;;;;;;4.61;100.00;100799.09;5087200;28;20111;-72
2023/12/09 04:08:20;;;;;;;33.92;11.23;;;;;;;4.61;100.00;100799.09;5084647;28;20141;-72
2023/12/09 04:10:45;;;;;;;37.03;12.00;;;;;;;4.62;100.00;100802.59;5086044;28;20115;-72
2023/12/09 04:13:11;;;;;;;37.72;11.55;;;;;;;4.61;100.00;100806.06;5084441;28;20028;-72
2023/12/09 04:15:38;;;;;;;32.92;10.55;;;;;;;4.73;100.00;100806.38;5084871;28;20039;-72
2023/12/09 04:18:04;;;;;;;35.75;11.20;;;;;;;4.70;100.00;100809.84;5086578;28;20475;-72
2023/12/09 04:20:29;;;;;;;29.92;10.35;;;;;;;4.76;100.00;100810.84;5083541;28;20090;-72
2023/12/09 04:22:55;;;;;;;34.13;11.35;;;;;;;4.78;100.00;100796.06;5079738;28;20021;-72
2023/12/09 04:25:21;;;;;;;34.00;11.15;;;;;;;4.82;100.00;100801.41;5086297;28;20016;-72
2023/12/09 04:27:46;;;;;;;31.17;10.82;;;;;;;4.88;100.00;100798.97;5084633;28;20038;-72
2023/12/09 04:30:12;;;;;;;36.90;11.30;;;;;;;4.87;100.00;100778.84;5085222;28;20119;-72
2023/12/09 04:32:37;;;;;;;34.40;10.73;;;;;;;4.84;100.00;100784.00;5085783;28;20032;-72
2023/12/09 04:35:03;;;;;;;36.92;11.48;;;;;;;4.81;100.00;100789.16;5083833;28;20364;-71
2023/12/09 04:37:28;;;;;;;33.55;10.25;;;;;;;4.82;100.00;100785.69;5087037;28;20111;-71
2023/12/09 04:39:54;;;;;;;33.72;10.90;;;;;;;4.76;100.00;100767.22;5083203;28;20036;-69
2023/12/09 04:42:19;;;;;;;34.83;10.77;;;;;;;4.74;100.00;100770.63;5086188;28;20186;-68
2023/12/09 04:44:45;;;;;;;31.45;10.20;;;;;;;4.69;100.00;100774.00;5084516;28;20465;-71
2023/12/09 04:47:10;;;;;;;35.30;10.35;;;;;;;4.74;100.00;100762.78;5084611;28;20032;-67
2023/12/09 04:49:36;;;;;;;33.00;10.18;;;;;;;4.71;100.00;100764.44;5085688;28;20165;-71
2023/12/09 04:52:01;;;;;;;32.25;10.73;;;;;;;4.70;100.00;100767.94;5082735;28;20379;-67
2023/12/09 04:54:27;;;;;;;32.67;10.20;;;;;;;4.71;100.00;100769.69;5086831;28;20378;-71
2023/12/09 04:56:52;;;;;;;32.88;10.18;;;;;;;4.74;100.00;100755.78;5083443;28;20025;-69
2023/12/09 04:59:17;;;;;;;32.78;10.27;;;;;;;4.76;100.00;100750.59;5085240;28;20038;-69
2023/12/09 05:01:43;;;;;;;31.98;9.80;;;;;;;4.75;100.00;100752.34;5084421;28;20359;-70
2023/12/09 05:04:09;;;;;;;34.30;10.45;;;;;;;4.78;100.00;100760.28;5084105;28;20032;-69
2023/12/09 05:06:34;;;;;;;33.72;10.05;;;;;;;4.81;100.00;100755.09;5085710;28;20030;-67
2023/12/09 05:09:00;;;;;;;34.53;10.05;;;;;;;4.76;100.00;100745.34;5082697;28;20027;-71
2023/12/09 05:11:25;;;;;;;32.30;9.60;;;;;;;4.74;100.00;100744.44;5086330;28;20020;-68
2023/12/09 05:13:50;;;;;;;33.25;9.85;;;;;;;4.77;100.00;100742.78;5083193;28;20094;-67
2023/12/09 05:16:15;;;;;;;29.17;8.88;;;;;;;4.71;100.00;100746.13;5084864;28;20463;-71
2023/12/09 05:18:41;;;;;;;32.28;9.52;;;;;;;4.67;100.00;100751.22;5083162;28;20450;-71
2023/12/09 05:21:06;;;;;;;31.25;9.20;;;;;;;4.70;100.00;100751.31;5083525;28;20032;-71
2023/12/09 05:23:32;;;;;;;30.20;9.20;;;;;;;4.71;100.00;100742.63;5085902;28;20024;-71
2023/12/09 05:25:58;;;;;;;29.67;8.85;;;;;;;4.71;100.00;100740.00;5082351;28;20037;-71
2023/12/09 05:28:23;;;;;;;33.13;9.52;;;;;;;4.70;100.00;100740.84;5085462;28;20131;-71
2023/12/09 05:30:49;;;;;;;32.22;9.15;;;;;;;4.72;100.00;100731.31;5083637;28;20036;-72
2023/12/09 05:33:14;;;;;;;30.58;9.38;;;;;;;4.71;100.00;100729.53;5084057;28;20471;-71
2023/12/09 05:35:39;;;;;;;32.55;9.38;;;;;;;4.71;100.00;100733.03;5084395;28;20059;-71
2023/12/09 05:38:05;;;;;;;29.23;9.05;;;;;;;4.68;100.00;100726.81;5082852;28;20056;-71
2023/12/09 05:40:30;;;;;;;32.47;9.15;;;;;;;4.70;100.00;100746.97;5085709;28;20489;-72
2023/12/09 05:42:55;;;;;;;29.60;8.70;;;;;;;4.74;100.00;100737.47;5081986;28;20024;-71
2023/12/09 05:45:20;;;;;;;31.08;8.90;;;;;;;4.84;100.00;100728.13;5084800;28;20125;-71
2023/12/09 05:47:46;;;;;;;30.58;8.85;;;;;;;4.84;100.00;100713.28;5083213;28;20085;-72
2023/12/09 05:50:11;;;;;;;30.58;8.45;;;;;;;4.86;100.00;100716.84;5083480;28;20434;-71
2023/12/09 05:52:37;;;;;;;27.15;8.25;;;;;;;4.88;100.00;100717.75;5084660;28;20043;-71
2023/12/09 05:55:02;;;;;;;30.17;8.52;;;;;;;4.88;100.00;100711.63;5082036;28;20027;-70
2023/12/09 05:57:28;;;;;;;30.50;8.55;;;;;;;4.86;100.00;100710.69;5085498;28;20491;-71
2023/12/09 05:59:53;;;;;;;30.60;8.40;;;;;;;4.88;100.00;100712.50;5080629;28;20036;-71
2023/12/09 06:02:19;;;;;;;30.10;8.20;;;;;;;4.94;100.00;100716.16;5083164;28;20036;-70
2023/12/09 06:04:44;;;;;;;32.78;8.60;;;;;;;4.91;100.00;100723.91;5083465;28;20045;-71
2023/12/09 06:07:10;;;;;;;30.90;8.52;;;;;;;4.84;100.00;100713.28;5082822;28;20020;-71
2023/12/09 06:09:35;;;;;;;28.77;7.97;;;;;;;4.81;100.00;100707.97;5084315;28;20467;-71
2023/12/09 06:12:00;;;;;;;31.70;7.93;;;;;;;4.78;100.00;100710.50;5081904;28;20028;-71
2023/12/09 06:14:26;;;;;;;30.02;8.00;;;;;;;4.76;100.00;100698.22;5084823;28;20062;-71
2023/12/09 06:16:51;;;;;;;27.83;8.10;;;;;;;4.77;100.00;100698.25;5082015;28;20040;-71
2023/12/09 06:19:16;;;;;;;30.83;8.18;;;;;;;4.72;100.00;100687.66;5083647;28;20029;-71
2023/12/09 06:21:42;;;;;;;29.23;8.43;;;;;;;4.65;100.00;100675.25;5083582;28;20043;-72
2023/12/09 06:24:07;;;;;;;29.58;7.90;;;;;;;4.62;100.00;100674.31;5082134;28;20032;-72
2023/12/09 06:26:32;;;;;;;30.38;9.15;;;;;;;4.63;100.00;100678.66;5084688;28;20020;-71
2023/12/09 06:28:58;;;;;;;30.00;8.55;;;;;;;4.52;100.00;100674.03;5081262;28;20487;-71
2023/12/09 06:31:23;;;;;;;30.33;7.90;;;;;;;4.54;100.00;100675.00;5084447;28;20093;-71
2023/12/09 06:33:48;;;;;;;27.75;8.02;;;;;;;4.52;100.00;100666.19;5082219;28;20077;-72
2023/12/09 06:36:14;;;;;;;31.33;8.27;;;;;;;4.51;100.00;100661.81;5081689;28;20033;-72
2023/12/09 06:38:40;;;;;;;31.00;8.68;;;;;;;4.49;100.00;100665.25;5083858;28;20093;-72
2023/12/09 06:41:06;;;;;;;30.40;7.90;;;;;;;4.50;100.00;100654.81;5081669;28;20020;-72
2023/12/09 06:43:31;;;;;;;29.83;8.35;;;;;;;4.48;100.00;100651.25;5084315;28;20474;-72
2023/12/09 06:45:58;;;;;;;28.60;8.43;;;;;;;4.61;100.00;100651.56;5077452;28;20123;-72
2023/12/09 06:48:24;;;;;;;29.27;8.10;;;;;;;4.63;100.00;100642.00;5084199;28;20044;-72
2023/12/09 06:50:49;;;;;;;30.90;8.07;;;;;;;4.59;100.00;100633.22;5081925;28;20024;-72
2023/12/09 06:53:15;;;;;;;31.10;8.07;;;;;;;4.57;100.00;100624.41;5081733;28;20066;-72
2023/12/09 06:55:40;;;;;;;27.13;7.82;;;;;;;4.53;100.00;100623.47;5083215;28;20030;-72
2023/12/09 06:58:06;;;;;;;30.63;8.40;;;;;;;4.59;100.00;100606.13;5081522;28;20029;-72
2023/12/09 07:00:31;;;;;;;28.65;7.82;;;;;;;4.59;100.00;100586.09;5084535;28;20032;-72
2023/12/09 07:02:56;;;;;;;27.00;7.82;;;;;;;4.57;100.00;100579.03;5080742;28;20082;-73
2023/12/09 07:05:22;;;;;;;27.20;7.72;;;;;;;4.55;100.00;100573.75;5083834;28;20032;-73
2023/12/09 07:07:50;;;;;;;27.13;7.65;;;;;;;4.58;100.00;100584.31;5082222;28;20044;-73
2023/12/09 07:10:16;;;;;;;31.92;8.05;;;;;;;4.63;100.00;100577.47;5082720;28;20471;-73
2023/12/09 07:12:43;;;;;;;31.15;7.70;;;;;;;4.68;100.00;100559.22;5083020;28;20032;-73
2023/12/09 07:15:09;;;;;;;27.10;7.72;;;;;;;4.64;100.00;100563.50;5085626;28;20024;-68
2023/12/09 07:17:34;;;;;;;28.85;7.40;;;;;;;4.68;100.00;100548.75;5087943;28;20054;-67
2023/12/09 07:20:00;;;;;;;27.60;7.20;;;;;;;4.73;100.00;100536.63;5084799;28;20032;-68
2023/12/09 07:22:25;;;;;;;27.45;7.40;;;;;;;4.82;100.00;100539.50;5087866;28;20024;-67
2023/12/09 07:24:51;;;;;;;27.65;7.22;;;;;;;4.85;100.00;100555.28;5085359;28;20483;-71
2023/12/09 07:27:17;;;;;;;29.02;7.47;;;;;;;4.94;100.00;100558.97;5086855;28;20375;-68
2023/12/09 07:29:43;;;;;;;27.15;6.80;;;;;;;4.97;100.00;100559.91;5086556;28;20028;-71
2023/12/09 07:32:09;;;;;;;23.30;6.78;;;;;;;4.99;100.00;100562.56;5085787;28;20040;-69
2023/12/09 07:34:35;;;;;;;25.55;7.00;;;;;;;5.05;100.00;100546.97;5087631;28;20091;-68
2023/12/09 07:37:00;;;;;;;27.48;6.88;;;;;;;5.05;100.00;100549.59;5084403;28;20046;-73
2023/12/09 07:39:25;;;;;;;27.52;6.40;;;;;;;5.07;100.00;100535.69;5087606;28;20036;-74
2023/12/09 07:41:51;;;;;;;25.98;6.72;;;;;;;5.13;100.00;100521.81;5085302;28;20036;-73
2023/12/09 07:44:20;;;;;;;26.40;6.30;;;;;;;5.19;100.00;100521.06;5086070;28;20075;-73
2023/12/09 07:46:48;;;;;;;26.55;6.50;;;;;;;5.23;100.00;100536.88;5085845;28;20472;-74
2023/12/09 07:49:13;;;;;;;25.63;6.07;;;;;;;5.27;100.00;100539.56;5086057;28;20021;-74
2023/12/09 07:51:39;;;;;;;25.50;6.57;;;;;;;5.28;100.00;100530.88;5086697;28;20385;-74
2023/12/09 07:54:04;;;;;;;26.35;6.78;;;;;;;5.28;100.00;100520.38;5084667;28;20035;-74
2023/12/09 07:56:30;;;;;;;26.73;6.72;;;;;;;5.30;100.00;100521.28;5087847;28;20379;-72
2023/12/09 07:58:56;;;;;;;24.33;6.05;;;;;;;5.34;100.00;100505.66;5084043;28;20032;-73
2023/12/09 08:01:21;;;;;;;26.05;6.57;;;;;;;5.35;100.00;100512.66;5086608;28;20428;-73
2023/12/09 08:03:46;;;;;;;26.05;6.43;;;;;;;5.41;100.00;100493.56;5085878;28;20042;-72
2023/12/09 08:06:12;;;;;;;23.75;6.03;;;;;;;5.43;100.00;100477.84;5085500;28;20111;-73
2023/12/09 08:08:40;;;;;;;23.45;5.90;;;;;;;5.48;100.00;100477.09;5086772;28;20043;-73
2023/12/09 08:11:06;;;;;;;24.52;6.35;;;;;;;5.49;100.00;100486.75;5084471;28;20029;-72
2023/12/09 08:13:31;;;;;;;27.63;6.28;;;;;;;5.53;100.00;100479.78;5087523;28;20111;-73
2023/12/09 08:15:57;;;;;;;24.75;5.90;;;;;;;5.54;100.00;100487.69;5083928;28;20033;-72
2023/12/09 08:18:22;;;;;;;25.90;6.32;;;;;;;5.57;100.00;100487.75;5086339;28;20119;-71
2023/12/09 08:20:48;;;;;;;24.63;5.82;;;;;;;5.64;100.00;100482.66;5084890;28;20032;-70
2023/12/09 08:23:13;;;;;;;23.30;5.88;;;;;;;5.68;100.00;100489.69;5085298;28;20028;-73
2023/12/09 08:25:39;;;;;;;24.55;6.28;;;;;;;5.72;100.00;100497.66;5085337;28;20032;-73
2023/12/09 08:28:05;;;;;;;23.23;5.95;;;;;;;5.75;100.00;100479.34;5083777;28;20032;-72
2023/12/09 08:30:31;;;;;;;23.40;5.70;;;;;;;5.77;100.00;100482.00;5087228;28;20099;-73
2023/12/09 08:32:56;;;;;;;22.52;5.30;;;;;;;5.83;100.00;100476.88;5083574;28;20107;-71
2023/12/09 08:35:22;;;;;;;24.15;6.00;;;;;;;5.86;100.00;100482.16;5086093;28;20032;-71
2023/12/09 08:37:48;;;;;;;22.70;5.60;;;;;;;5.88;100.00;100477.84;5084946;28;20035;-69
2023/12/09 08:40:14;;;;;;;19.90;4.80;;;;;;;5.91;100.00;100485.75;5084784;28;20032;-69
2023/12/09 08:42:40;;;;;;;22.85;5.43;;;;;;;5.94;100.00;100477.94;5085724;28;20432;-68
2023/12/09 08:45:08;;;;;;;25.45;5.70;;;;;;;5.96;100.00;100461.34;5083801;28;20139;-71
2023/12/09 08:47:34;;;;;;;21.70;5.15;;;;;;;6.00;100.00;100458.84;5086345;28;20104;-67
2023/12/09 08:49:59;;;;;;;23.38;5.25;;;;;;;6.01;100.00;100454.47;5083149;28;20037;-68
2023/12/09 08:52:24;;;;;;;23.58;5.30;;;;;;;6.06;100.00;100460.69;5086297;28;20028;-70
2023/12/09 08:54:50;;;;;;;21.42;4.78;;;;;;;6.09;100.00;100450.22;5084037;28;20073;-67
2023/12/09 08:57:15;;;;;;;21.42;4.78;;;;;;;6.08;100.00;100454.56;5084744;28;20091;-72
2023/12/09 08:59:40;;;;;;;22.90;4.90;;;;;;;6.11;100.00;100444.13;5085411;28;20486;-69
2023/12/09 09:02:06;;;;;;;21.83;4.70;;;;;;;6.12;100.00;100439.78;5083246;28;20030;-68
2023/12/09 09:04:32;;;;;;;20.85;4.45;;;;;;;6.16;100.00;100438.06;5086559;28;20115;-68
2023/12/09 09:06:57;;;;;;;21.42;4.50;;;;;;;6.21;100.00;100436.41;5082968;28;20033;-68
2023/12/09 09:09:22;;;;;;;19.38;4.90;;;;;;;6.24;100.00;100423.34;5085365;28;20032;-68
2023/12/09 09:11:48;;;;;;;22.10;4.53;;;;;;;6.23;100.00;100411.97;5084182;28;20024;-73
2023/12/09 09:14:13;;;;;;;21.05;4.57;;;;;;;6.23;100.00;100401.47;5083930;28;20028;-72
2023/12/09 09:16:38;;;;;;;20.80;4.45;;;;;;;6.23;100.00;100397.94;5085466;28;20023;-73
2023/12/09 09:19:05;;;;;;;20.55;4.45;;;;;;;6.26;100.00;100387.47;5082936;28;20368;-72
2023/12/09 09:21:30;;;;;;;20.95;4.20;;;;;;;6.31;100.00;100374.44;5085986;28;20056;-74
2023/12/09 09:23:55;;;;;;;22.52;4.40;;;;;;;6.28;100.00;100352.53;5082977;28;20063;-73
2023/12/09 09:26:21;;;;;;;21.70;4.25;;;;;;;6.17;100.00;100348.84;5084996;28;20109;-72
2023/12/09 09:28:47;;;;;;;21.02;4.45;;;;;;;6.05;100.00;100348.69;5083782;28;20138;-73
2023/12/09 09:31:13;;;;;;;22.70;4.43;;;;;;;6.02;100.00;100344.28;5083503;28;20115;-73
2023/12/09 09:33:41;;;;;;;21.88;4.55;;;;;;;6.00;100.00;100335.50;5085382;28;20032;-73
2023/12/09 09:36:07;;;;;;;20.92;4.30;;;;;;;6.06;100.00;100343.47;5082382;28;20364;-72
2023/12/09 09:38:33;;;;;;;21.35;4.60;;;;;;;6.10;100.00;100363.66;5085548;28;20105;-72
2023/12/09 09:40:58;;;;;;;21.73;4.35;;;;;;;6.21;100.00;100350.66;5078040;28;20067;-74
2023/12/09 09:43:30;;;;;;;21.50;4.60;;;;;;;6.34;100.00;100354.34;5084790;28;20044;-72
2023/12/09 09:45:56;;;;;;;20.83;4.38;;;;;;;6.44;100.00;100334.34;5082357;28;20028;-73
2023/12/09 09:48:24;;;;;;;20.17;4.00;;;;;;;6.49;100.00;100324.78;5084721;28;20036;-73
2023/12/09 09:50:56;;;;;;;19.60;4.25;;;;;;;6.53;100.00;100321.34;5083000;28;20290;-72
2023/12/09 09:53:48;;;;;;;20.73;4.00;;;;;;;6.62;100.00;100310.94;5084396;28;20055;-72
2023/12/09 09:56:14;;;;;;;20.85;3.90;;;;;;;6.63;100.00;100301.31;5081177;28;20025;-73
2023/12/09 09:58:40;;;;;;;20.60;4.20;;;;;;;6.69;100.00;100300.53;5084307;28;20085;-69
2023/12/09 10:01:09;;;;;;;19.92;4.03;;;;;;;6.76;100.00;100294.47;5082132;28;20093;-73
2023/12/09 10:03:35;;;;;;;18.63;3.80;;;;;;;6.85;100.00;100281.44;5085040;28;20501;-72
2023/12/09 10:06:00;;;;;;;19.77;3.83;;;;;;;6.84;100.00;100279.66;5081641;28;20024;-68
2023/12/09 10:08:25;;;;;;;20.10;3.67;;;;;;;6.88;100.00;100265.69;5084804;28;20077;-71
2023/12/09 10:10:51;;;;;;;21.15;3.95;;;;;;;6.87;100.00;100258.66;5082477;28;20451;-69
2023/12/09 10:13:17;;;;;;;20.25;4.20;;;;;;;6.87;100.00;100236.78;5082304;28;20051;-69
2023/12/09 10:15:42;;;;;;;19.40;3.92;;;;;;;6.88;100.00;100233.28;5083919;28;20028;-72
2023/12/09 10:18:12;;;;;;;19.38;4.07;;;;;;;6.90;100.00;100227.19;5081921;28;20063;-69
2023/12/09 10:20:37;;;;;;;18.98;3.80;;;;;;;6.89;100.00;100214.91;5084162;28;20032;-69
2023/12/09 10:23:03;;;;;;;19.70;4.00;;;;;;;6.90;100.00;100207.91;5081563;28;20468;-70
2023/12/09 10:25:29;;;;;;;19.10;3.65;;;;;;;6.94;100.00;100192.16;5084606;28;20486;-70
2023/12/09 10:27:56;;;;;;;18.73;3.70;;;;;;;6.91;100.00;100189.50;5082375;28;20043;-70
2023/12/09 10:30:21;;;;;;;17.90;3.70;;;;;;;6.93;100.00;100184.28;5083608;28;20044;-68
2023/12/09 10:32:48;;;;;;;18.27;3.55;;;;;;;6.94;100.00;100170.28;5082895;28;20028;-69
2023/12/09 10:35:15;;;;;;;18.75;3.85;;;;;;;7.01;100.00;100151.06;5082702;28;20025;-72
2023/12/09 10:37:41;;;;;;;21.73;3.92;;;;;;;7.09;100.00;100152.00;5083660;28;20442;-73
2023/12/09 10:40:08;;;;;;;18.98;3.70;;;;;;;7.11;100.00;100166.03;5081573;28;20120;-72
2023/12/09 10:42:37;;;;;;;21.40;3.90;;;;;;;7.13;100.00;100155.53;5083466;28;20115;-73
2023/12/09 10:45:04;;;;;;;18.55;3.50;;;;;;;7.05;100.00;100141.44;5081164;28;20047;-69
2023/12/09 10:47:30;;;;;;;19.10;3.60;;;;;;;6.97;100.00;100123.91;5076979;28;20033;-71
2023/12/09 10:49:56;;;;;;;19.05;3.60;;;;;;;6.87;100.00;100110.66;5083846;28;20481;-73
2023/12/09 10:52:22;;;;;;;20.05;3.88;;;;;;;6.73;100.00;100107.94;5082167;28;20074;-68
2023/12/09 10:54:47;;;;;;;19.13;3.78;;;;;;;6.60;100.00;100091.19;5082826;28;20021;-74
2023/12/09 10:57:15;;;;;;;20.48;3.67;;;;;;;6.52;100.00;100083.22;5082064;28;20028;-74
2023/12/09 10:59:40;;;;;;;21.50;3.75;;;;;;;6.50;100.00;100065.72;5081600;28;20368;-74
2023/12/09 11:02:07;;;;;;;18.38;3.40;;;;;;;6.47;100.00;100063.06;5084072;28;20115;-74
2023/12/09 11:04:33;;;;;;;15.77;3.63;;;;;;;6.49;100.00;100067.44;5081093;28;20028;-74
2023/12/09 11:07:03;;;;;;;22.30;4.20;;;;;;;6.50;100.00;100073.59;5084558;28;20375;-74
2023/12/09 11:09:31;;;;;;;19.63;3.70;;;;;;;6.54;100.00;100065.75;5080731;28;20021;-74